Time;durP1;ratioP1;P1;durP2;ratioP2;P2;SDS_P1;SDS_P2;PMS_P1;PMS_P2;Temp;Humidity;BMP_temperature;BMP_pressure;BME280_temperature;BME280_humidity;BME280_pressure;Samples;Min_cycle;Max_cycle;Signal;HPM_P1;HPM_P2
2022/09/10 00:01:15;;;;;;;9.60;6.47;;;;;;;;;;5059668;28;20523;-82
2022/09/10 00:03:45;;;;;;;10.60;6.78;;;;;;;;;;5057736;28;20052;-82
2022/09/10 00:06:11;;;;;;;8.90;6.00;;;;;;;;;;5057481;28;20090;-82
2022/09/10 00:08:38;;;;;;;8.32;6.20;;;;;;;;;;5057408;28;20021;-82
2022/09/10 00:11:06;;;;;;;9.32;6.93;;;;;;;;;;5057650;28;20028;-81
2022/09/10 00:13:32;;;;;;;9.43;6.07;;;;;;;;;;5059664;28;20021;-81
2022/09/10 00:16:01;;;;;;;8.27;6.07;;;;;;;;;;5059329;28;20079;-81
2022/09/10 00:18:28;;;;;;;8.75;5.63;;;;;;;;;;5059013;28;20025;-82
2022/09/10 00:20:55;;;;;;;10.95;7.65;;;;;;;;;;5038765;28;20025;-82
2022/09/10 00:23:25;;;;;;;13.10;8.88;;;;;;;;;;5047941;28;20037;-82
2022/09/10 00:25:52;;;;;;;10.98;7.43;;;;;;;;;;5040253;28;20028;-82
2022/09/10 00:28:18;;;;;;;15.20;9.35;;;;;;;;;;5056102;28;20029;-81
2022/09/10 00:30:45;;;;;;;11.95;7.35;;;;;;;;;;5055963;28;20021;-82
2022/09/10 00:33:12;;;;;;;9.25;6.00;;;;;;;;;;5058766;28;20118;-82
2022/09/10 00:35:41;;;;;;;9.30;6.35;;;;;;;;;;5057609;28;20021;-82
2022/09/10 00:38:08;;;;;;;7.97;5.60;;;;;;;;;;5050124;28;20021;-82
2022/09/10 00:40:34;;;;;;;7.13;3.28;;;;;;;;;;5057381;28;20032;-82
2022/09/10 00:43:00;;;;;;;6.43;3.53;;;;;;;;;;5056344;28;20033;-82
2022/09/10 00:45:30;;;;;;;6.50;3.33;;;;;;;;;;5054788;28;20045;-82
2022/09/10 00:48:02;;;;;;;7.03;3.40;;;;;;;;;;5055430;28;20093;-82
2022/09/10 00:50:30;;;;;;;6.70;3.70;;;;;;;;;;5056270;28;20032;-82
2022/09/10 00:52:58;;;;;;;4.07;1.95;;;;;;;;;;5056531;28;20568;-81
2022/09/10 00:55:24;;;;;;;5.32;1.75;;;;;;;;;;5055640;28;20033;-81
2022/09/10 00:57:53;;;;;;;4.30;1.70;;;;;;;;;;5051735;28;20118;-79
2022/09/10 01:00:19;;;;;;;3.60;1.70;;;;;;;;;;5052874;28;20029;-78
2022/09/10 01:02:47;;;;;;;5.30;1.60;;;;;;;;;;5053122;28;20484;-79
2022/09/10 01:05:13;;;;;;;4.20;1.92;;;;;;;;;;5053976;28;20557;-79
2022/09/10 01:07:40;;;;;;;4.25;2.05;;;;;;;;;;5055168;28;20064;-82
2022/09/10 01:10:08;;;;;;;5.10;2.03;;;;;;;;;;5054244;28;20025;-82
2022/09/10 01:12:53;;;;;;;4.47;2.00;;;;;;;;;;5053864;28;20032;-82
2022/09/10 01:15:19;;;;;;;4.72;1.90;;;;;;;;;;5052986;28;20115;-82
2022/09/10 01:17:45;;;;;;;4.60;2.10;;;;;;;;;;5056098;28;20059;-82
2022/09/10 01:20:14;;;;;;;5.05;2.13;;;;;;;;;;5059475;28;20052;-82
2022/09/10 01:22:43;;;;;;;4.38;2.05;;;;;;;;;;5043851;28;20443;-82
2022/09/10 01:25:13;;;;;;;4.25;2.17;;;;;;;;;;5040173;28;20435;-81
2022/09/10 01:27:44;;;;;;;5.07;2.20;;;;;;;;;;5047373;28;20079;-82
2022/09/10 01:30:10;;;;;;;4.90;2.42;;;;;;;;;;5053808;28;20037;-82
2022/09/10 01:32:54;;;;;;;4.50;2.40;;;;;;;;;;5053591;28;20032;-82
2022/09/10 01:35:44;;;;;;;5.78;3.08;;;;;;;;;;5057199;28;20021;-81
2022/09/10 01:38:37;;;;;;;7.18;3.80;;;;;;;;;;5061164;28;20051;-82
2022/09/10 01:41:03;;;;;;;;;;;;;;;;;;5060006;28;20036;-82
2022/09/10 01:43:29;;;;;;;6.35;3.33;;;;;;;;;;5057667;28;19909;-82
2022/09/10 01:46:18;;;;;;;6.28;3.45;;;;;;;;;;5060368;28;20032;-82
2022/09/10 01:48:44;;;;;;;5.65;3.10;;;;;;;;;;5060783;28;20060;-81
2022/09/10 01:51:10;;;;;;;6.55;3.45;;;;;;;;;;5061404;28;20079;-81
2022/09/10 01:53:36;;;;;;;6.68;3.50;;;;;;;;;;5060065;28;20588;-81
2022/09/10 01:56:23;;;;;;;6.15;3.22;;;;;;;;;;5059845;28;20511;-81
2022/09/10 01:58:49;;;;;;;6.85;3.28;;;;;;;;;;5060750;28;20424;-82
2022/09/10 02:01:32;;;;;;;6.47;3.45;;;;;;;;;;5060668;28;20412;-82
2022/09/10 02:04:01;;;;;;;6.50;3.40;;;;;;;;;;5060582;28;20485;-82
2022/09/10 02:06:29;;;;;;;6.00;3.33;;;;;;;;;;5057727;28;20025;-81
2022/09/10 02:08:56;;;;;;;6.50;3.90;;;;;;;;;;5060610;28;20067;-81
2022/09/10 02:11:22;;;;;;;7.85;3.83;;;;;;;;;;5059710;28;20040;-82
2022/09/10 02:13:49;;;;;;;5.78;3.40;;;;;;;;;;5061602;28;20036;-82
2022/09/10 02:16:20;;;;;;;7.63;3.30;;;;;;;;;;5058328;28;20023;-81
2022/09/10 02:18:46;;;;;;;7.20;3.25;;;;;;;;;;5057970;28;20025;-82
2022/09/10 02:21:14;;;;;;;7.28;3.10;;;;;;;;;;5059287;28;20021;-81
2022/09/10 02:23:44;;;;;;;6.35;3.40;;;;;;;;;;5060693;28;20013;-81
2022/09/10 02:26:13;;;;;;;6.55;3.33;;;;;;;;;;5058293;28;20032;-80
2022/09/10 02:28:39;;;;;;;7.55;3.30;;;;;;;;;;5058862;28;20023;-80
2022/09/10 02:31:05;;;;;;;5.90;3.33;;;;;;;;;;5058950;28;20025;-80
2022/09/10 02:33:31;;;;;;;5.40;3.22;;;;;;;;;;5059621;28;20021;-80
2022/09/10 02:35:58;;;;;;;6.75;3.05;;;;;;;;;;5059964;28;20451;-80
2022/09/10 02:38:24;;;;;;;6.00;3.25;;;;;;;;;;5059213;28;20028;-81
2022/09/10 02:40:50;;;;;;;5.82;3.13;;;;;;;;;;5041909;28;20052;-78
2022/09/10 02:43:16;;;;;;;5.68;3.97;;;;;;;;;;5055496;28;20481;-78
2022/09/10 02:45:43;;;;;;;6.50;3.58;;;;;;;;;;5060327;28;20049;-79
2022/09/10 02:48:09;;;;;;;6.20;3.53;;;;;;;;;;5059110;28;20431;-78
2022/09/10 02:50:35;;;;;;;7.97;3.72;;;;;;;;;;5059900;28;20041;-78
2022/09/10 02:53:01;;;;;;;7.25;3.70;;;;;;;;;;5059949;28;20029;-78
2022/09/10 02:55:27;;;;;;;7.13;3.90;;;;;;;;;;5056730;28;20369;-78
2022/09/10 02:57:54;;;;;;;7.07;4.45;;;;;;;;;;5059552;28;20043;-81
2022/09/10 03:00:21;;;;;;;7.53;4.00;;;;;;;;;;5059002;28;20021;-81
2022/09/10 03:02:47;;;;;;;9.45;4.13;;;;;;;;;;5059729;28;20029;-81
2022/09/10 03:05:13;;;;;;;6.88;4.28;;;;;;;;;;5060465;28;20459;-78
2022/09/10 03:07:40;;;;;;;8.27;3.80;;;;;;;;;;5058528;28;20053;-78
2022/09/10 03:10:06;;;;;;;7.20;3.83;;;;;;;;;;5058139;28;20029;-79
2022/09/10 03:12:32;;;;;;;6.38;3.90;;;;;;;;;;5059214;28;20021;-79
2022/09/10 03:14:58;;;;;;;6.18;3.53;;;;;;;;;;5057938;28;20044;-79
2022/09/10 03:17:25;;;;;;;6.80;3.47;;;;;;;;;;5057735;28;20419;-79
2022/09/10 03:19:51;;;;;;;7.57;3.78;;;;;;;;;;5058490;28;20450;-78
2022/09/10 03:22:17;;;;;;;6.95;3.65;;;;;;;;;;5056926;28;20040;-78
2022/09/10 03:24:43;;;;;;;8.07;4.10;;;;;;;;;;5056996;28;20037;-81
2022/09/10 03:27:09;;;;;;;8.20;4.25;;;;;;;;;;5058022;28;20021;-81
2022/09/10 03:29:35;;;;;;;7.03;3.97;;;;;;;;;;5055431;28;20017;-82
2022/09/10 03:32:02;;;;;;;6.65;4.22;;;;;;;;;;5057087;28;20503;-82
2022/09/10 03:34:28;;;;;;;8.07;4.10;;;;;;;;;;5058094;28;20461;-81
2022/09/10 03:36:54;;;;;;;7.50;3.97;;;;;;;;;;5057744;28;20072;-81
2022/09/10 03:39:20;;;;;;;8.40;4.55;;;;;;;;;;5058901;28;20028;-81
2022/09/10 03:41:46;;;;;;;7.50;4.65;;;;;;;;;;5057413;28;20025;-81
2022/09/10 03:44:13;;;;;;;9.57;4.82;;;;;;;;;;5053262;28;20473;-81
2022/09/10 03:46:40;;;;;;;9.75;4.70;;;;;;;;;;5058506;28;20063;-82
2022/09/10 03:49:06;;;;;;;7.90;4.70;;;;;;;;;;5058911;28;20024;-80
2022/09/10 03:51:34;;;;;;;8.80;4.75;;;;;;;;;;5058319;28;20127;-81
2022/09/10 03:54:00;;;;;;;9.23;5.43;;;;;;;;;;5059579;28;20115;-81
2022/09/10 03:56:28;;;;;;;8.73;5.40;;;;;;;;;;5059446;28;20063;-81
2022/09/10 03:58:55;;;;;;;11.18;5.53;;;;;;;;;;5058000;28;20093;-81
2022/09/10 04:01:21;;;;;;;8.85;5.15;;;;;;;;;;5056050;28;20391;-81
2022/09/10 04:03:47;;;;;;;10.48;5.45;;;;;;;;;;5056323;28;20037;-80
2022/09/10 04:06:15;;;;;;;10.73;5.28;;;;;;;;;;5057933;28;20086;-81
2022/09/10 04:08:42;;;;;;;9.82;5.38;;;;;;;;;;5053061;28;20025;-81
2022/09/10 04:11:11;;;;;;;9.70;5.90;;;;;;;;;;5058934;28;20028;-81
2022/09/10 04:13:37;;;;;;;10.75;6.43;;;;;;;;;;5059372;28;20013;-81
2022/09/10 04:16:03;;;;;;;10.95;5.55;;;;;;;;;;5058252;28;20025;-81
2022/09/10 04:18:30;;;;;;;10.60;6.43;;;;;;;;;;5059364;28;20029;-80
2022/09/10 04:20:57;;;;;;;9.50;5.35;;;;;;;;;;5053228;28;20111;-80
2022/09/10 04:23:23;;;;;;;11.63;6.50;;;;;;;;;;5056944;28;20029;-80
2022/09/10 04:25:49;;;;;;;9.73;6.20;;;;;;;;;;5057795;28;20040;-80
2022/09/10 04:28:15;;;;;;;11.57;6.60;;;;;;;;;;5056629;28;20496;-80
2022/09/10 04:30:43;;;;;;;10.10;6.28;;;;;;;;;;5040817;28;20048;-80
2022/09/10 04:33:10;;;;;;;12.02;7.05;;;;;;;;;;5052567;28;20017;-81
2022/09/10 04:35:38;;;;;;;10.65;7.07;;;;;;;;;;5053191;28;20535;-81
2022/09/10 04:38:04;;;;;;;13.32;7.28;;;;;;;;;;5044667;28;20120;-81
2022/09/10 04:40:30;;;;;;;13.40;8.10;;;;;;;;;;5041720;28;20034;-82
2022/09/10 04:42:56;;;;;;;13.10;8.38;;;;;;;;;;5035948;28;20029;-81
2022/09/10 04:45:22;;;;;;;14.00;8.27;;;;;;;;;;5038769;28;20059;-80
2022/09/10 04:47:48;;;;;;;12.35;8.13;;;;;;;;;;5042574;28;20069;-79
2022/09/10 04:50:15;;;;;;;12.40;8.32;;;;;;;;;;5048276;28;20068;-81
2022/09/10 04:52:42;;;;;;;12.65;8.15;;;;;;;;;;5050133;28;20025;-82
2022/09/10 04:55:08;;;;;;;13.27;8.68;;;;;;;;;;5047737;28;20370;-80
2022/09/10 04:57:35;;;;;;;14.45;8.15;;;;;;;;;;5051164;28;20389;-80
2022/09/10 05:00:01;;;;;;;13.77;8.13;;;;;;;;;;5041821;28;20032;-81
2022/09/10 05:02:28;;;;;;;13.35;8.90;;;;;;;;;;5053035;28;20024;-84
2022/09/10 05:04:54;;;;;;;15.15;8.45;;;;;;;;;;5056688;28;20497;-82
2022/09/10 05:07:20;;;;;;;11.93;8.25;;;;;;;;;;5046950;28;20052;-82
2022/09/10 05:09:46;;;;;;;13.02;7.50;;;;;;;;;;5053158;28;20111;-85
2022/09/10 05:12:12;;;;;;;12.02;7.22;;;;;;;;;;5056501;28;20021;-81
2022/09/10 05:14:38;;;;;;;11.82;7.20;;;;;;;;;;5051480;28;20037;-81
2022/09/10 05:17:04;;;;;;;12.60;7.22;;;;;;;;;;5046621;28;20028;-81
2022/09/10 05:19:31;;;;;;;12.38;6.88;;;;;;;;;;5052408;28;20025;-82
2022/09/10 05:21:56;;;;;;;10.88;7.28;;;;;;;;;;5037197;28;20029;-81
2022/09/10 05:24:23;;;;;;;11.57;6.28;;;;;;;;;;5040339;28;20021;-82
2022/09/10 05:26:49;;;;;;;11.20;7.03;;;;;;;;;;5055189;28;20119;-81
2022/09/10 05:29:15;;;;;;;8.18;5.22;;;;;;;;;;5053863;28;20068;-81
2022/09/10 05:31:42;;;;;;;11.15;6.40;;;;;;;;;;5046973;28;20029;-81
2022/09/10 05:34:08;;;;;;;10.68;5.82;;;;;;;;;;5051879;28;20380;-81
2022/09/10 05:36:34;;;;;;;8.85;6.30;;;;;;;;;;5048704;28;20044;-81
2022/09/10 05:39:02;;;;;;;9.18;5.20;;;;;;;;;;5055645;28;20518;-81
2022/09/10 05:41:29;;;;;;;10.00;5.38;;;;;;;;;;5053416;28;20032;-82
2022/09/10 05:43:55;;;;;;;8.90;5.47;;;;;;;;;;5042903;28;20404;-81
2022/09/10 05:46:23;;;;;;;8.68;5.07;;;;;;;;;;5051397;28;20052;-81
2022/09/10 05:48:49;;;;;;;10.80;5.50;;;;;;;;;;5054254;28;20044;-81
2022/09/10 05:51:16;;;;;;;8.45;5.40;;;;;;;;;;5039407;28;20024;-81
2022/09/10 05:53:42;;;;;;;7.85;5.05;;;;;;;;;;5037429;28;20014;-80
2022/09/10 05:56:08;;;;;;;7.95;4.57;;;;;;;;;;5053582;28;20017;-80
2022/09/10 05:58:34;;;;;;;8.63;5.10;;;;;;;;;;5050508;28;20038;-80
2022/09/10 06:01:00;;;;;;;8.18;5.03;;;;;;;;;;5041953;28;20116;-80
2022/09/10 06:03:26;;;;;;;7.93;4.60;;;;;;;;;;5047924;28;20035;-80
2022/09/10 06:05:54;;;;;;;8.18;4.00;;;;;;;;;;5046766;28;20033;-80
2022/09/10 06:08:21;;;;;;;7.95;4.78;;;;;;;;;;5028786;28;20500;-79
2022/09/10 06:10:56;;;;;;;7.45;4.30;;;;;;;;;;5027717;28;20033;-79
2022/09/10 06:13:22;;;;;;;7.55;4.18;;;;;;;;;;5035805;28;20062;-79
2022/09/10 06:15:48;;;;;;;6.35;3.83;;;;;;;;;;5048896;28;20388;-79
2022/09/10 06:18:14;;;;;;;6.68;3.88;;;;;;;;;;5040223;28;20477;-81
2022/09/10 06:20:40;;;;;;;9.48;4.32;;;;;;;;;;5042202;28;20021;-80
2022/09/10 06:23:06;;;;;;;8.50;4.13;;;;;;;;;;5040174;28;20039;-79
2022/09/10 06:25:32;;;;;;;7.57;4.13;;;;;;;;;;5052039;28;20060;-80
2022/09/10 06:28:00;;;;;;;7.20;3.92;;;;;;;;;;5052631;28;20021;-81
2022/09/10 06:30:27;;;;;;;6.97;4.07;;;;;;;;;;5056610;28;20021;-80
2022/09/10 06:32:53;;;;;;;6.07;3.90;;;;;;;;;;5056100;28;20018;-82
2022/09/10 06:35:20;;;;;;;6.90;4.10;;;;;;;;;;5057388;28;20021;-81
2022/09/10 06:37:46;;;;;;;6.70;3.75;;;;;;;;;;5050077;28;21264;-80
2022/09/10 06:40:12;;;;;;;8.07;4.18;;;;;;;;;;5067977;28;20041;-80
2022/09/10 06:42:39;;;;;;;6.63;4.00;;;;;;;;;;5043546;28;20072;-82
2022/09/10 06:45:06;;;;;;;7.50;3.72;;;;;;;;;;5056062;28;20029;-80
2022/09/10 06:47:32;;;;;;;5.55;3.40;;;;;;;;;;5055817;28;20037;-81
2022/09/10 06:49:58;;;;;;;6.65;4.50;;;;;;;;;;5042072;28;20116;-82
2022/09/10 06:52:24;;;;;;;7.40;4.13;;;;;;;;;;5055769;28;20432;-79
2022/09/10 06:54:51;;;;;;;7.15;4.07;;;;;;;;;;5043069;28;20052;-83
2022/09/10 06:57:17;;;;;;;5.60;3.30;;;;;;;;;;5055235;28;20499;-80
2022/09/10 06:59:43;;;;;;;6.25;3.33;;;;;;;;;;5055312;28;20059;-80
2022/09/10 07:02:09;;;;;;;6.25;3.42;;;;;;;;;;5050004;28;20428;-79
2022/09/10 07:04:35;;;;;;;6.55;3.35;;;;;;;;;;5050482;28;20033;-79
2022/09/10 07:07:01;;;;;;;6.18;3.33;;;;;;;;;;5048341;28;20063;-81
2022/09/10 07:09:27;;;;;;;6.07;3.38;;;;;;;;;;5038801;28;20124;-79
2022/09/10 07:11:53;;;;;;;6.13;3.25;;;;;;;;;;5052173;28;20060;-83
2022/09/10 07:14:19;;;;;;;5.55;2.95;;;;;;;;;;5053587;28;20024;-83
2022/09/10 07:16:46;;;;;;;6.28;3.60;;;;;;;;;;5048898;28;20556;-82
2022/09/10 07:19:16;;;;;;;5.05;2.88;;;;;;;;;;5050666;28;20025;-82
2022/09/10 07:21:42;;;;;;;5.07;2.97;;;;;;;;;;5038366;28;20036;-82
2022/09/10 07:24:11;;;;;;;5.80;3.38;;;;;;;;;;5057336;28;20388;-81
2022/09/10 07:26:37;;;;;;;4.82;2.75;;;;;;;;;;5055521;28;20032;-81
2022/09/10 07:29:03;;;;;;;5.53;3.10;;;;;;;;;;5055773;28;20025;-82
2022/09/10 07:31:32;;;;;;;5.55;3.28;;;;;;;;;;5047992;28;20079;-82
2022/09/10 07:34:00;;;;;;;4.82;2.78;;;;;;;;;;5047366;28;20495;-81
2022/09/10 07:36:26;;;;;;;5.57;3.00;;;;;;;;;;5056349;28;20090;-80
2022/09/10 07:38:53;;;;;;;6.60;3.17;;;;;;;;;;5056150;28;20033;-80
2022/09/10 07:41:19;;;;;;;5.63;3.45;;;;;;;;;;5051314;28;20044;-84
2022/09/10 07:43:45;;;;;;;5.35;2.92;;;;;;;;;;5053174;28;20025;-81
2022/09/10 07:46:13;;;;;;;5.38;2.80;;;;;;;;;;5058356;28;20068;-81
2022/09/10 07:48:40;;;;;;;5.47;3.00;;;;;;;;;;5050047;28;20024;-81
2022/09/10 07:51:06;;;;;;;5.53;3.70;;;;;;;;;;5044118;28;20021;-79
2022/09/10 07:53:33;;;;;;;5.63;3.30;;;;;;;;;;5057578;28;20025;-80
2022/09/10 07:56:04;;;;;;;5.35;3.00;;;;;;;;;;5053663;28;20044;-82
2022/09/10 07:58:30;;;;;;;5.40;3.30;;;;;;;;;;5052917;28;20053;-81
2022/09/10 08:00:58;;;;;;;6.25;3.40;;;;;;;;;;5049173;28;20029;-78
2022/09/10 08:03:24;;;;;;;6.00;3.17;;;;;;;;;;5051539;28;20107;-80
2022/09/10 08:05:50;;;;;;;5.75;3.47;;;;;;;;;;5052778;28;20021;-78
2022/09/10 08:08:16;;;;;;;6.53;3.33;;;;;;;;;;5054325;28;20094;-79
2022/09/10 08:10:42;;;;;;;5.90;3.45;;;;;;;;;;5049326;28;20080;-80
2022/09/10 08:13:08;;;;;;;5.70;2.95;;;;;;;;;;5043375;28;20024;-78
2022/09/10 08:15:35;;;;;;;4.93;2.92;;;;;;;;;;5055188;28;20075;-78
2022/09/10 08:18:01;;;;;;;5.57;2.72;;;;;;;;;;5051448;28;20021;-78
2022/09/10 08:20:27;;;;;;;5.60;2.95;;;;;;;;;;5048206;28;20028;-78
2022/09/10 08:22:56;;;;;;;4.88;2.30;;;;;;;;;;5044991;28;20024;-78
2022/09/10 08:25:22;;;;;;;5.05;2.63;;;;;;;;;;5045795;28;20017;-80
2022/09/10 08:27:48;;;;;;;5.60;2.60;;;;;;;;;;5049722;28;20021;-80
2022/09/10 08:30:14;;;;;;;6.20;2.55;;;;;;;;;;5048409;28;20082;-81
2022/09/10 08:32:40;;;;;;;6.75;3.00;;;;;;;;;;5046322;28;20029;-78
2022/09/10 08:35:06;;;;;;;5.38;2.60;;;;;;;;;;5045558;28;20025;-79
2022/09/10 08:37:33;;;;;;;4.97;2.60;;;;;;;;;;5049026;28;20021;-79
2022/09/10 08:39:59;;;;;;;5.55;2.50;;;;;;;;;;5060417;28;20029;-78
2022/09/10 08:42:30;;;;;;;6.50;3.13;;;;;;;;;;5047307;28;20029;-80
2022/09/10 08:45:06;;;;;;;5.13;2.60;;;;;;;;;;5046422;28;20029;-81
2022/09/10 08:47:40;;;;;;;4.60;2.67;;;;;;;;;;5048457;28;20045;-79
2022/09/10 08:50:12;;;;;;;5.05;2.60;;;;;;;;;;5050708;28;20753;-79
2022/09/10 08:52:43;;;;;;;4.57;2.38;;;;;;;;;;5051283;28;20373;-79
2022/09/10 08:55:18;;;;;;;4.30;2.30;;;;;;;;;;5055815;28;20052;-79
2022/09/10 08:57:51;;;;;;;4.55;2.10;;;;;;;;;;5055910;28;20028;-78
2022/09/10 09:00:20;;;;;;;4.57;2.35;;;;;;;;;;5056654;28;20093;-81
2022/09/10 09:02:55;;;;;;;6.18;3.05;;;;;;;;;;5056567;28;20021;-80
2022/09/10 09:05:22;;;;;;;5.70;2.92;;;;;;;;;;5055393;28;20039;-83
2022/09/10 09:07:48;;;;;;;6.25;3.13;;;;;;;;;;5050964;28;20037;-81
2022/09/10 09:10:24;;;;;;;7.22;4.15;;;;;;;;;;5055869;28;20044;-84
2022/09/10 09:13:10;;;;;;;5.68;2.70;;;;;;;;;;5055800;28;20116;-83
2022/09/10 09:15:40;;;;;;;6.18;3.00;;;;;;;;;;5048882;28;20051;-82
2022/09/10 09:18:27;;;;;;;5.60;2.67;;;;;;;;;;5057474;28;20027;-81
2022/09/10 09:21:13;;;;;;;5.45;2.55;;;;;;;;;;5055928;28;20484;-83
2022/09/10 09:23:54;;;;;;;5.85;2.90;;;;;;;;;;5064215;28;20029;-81
2022/09/10 09:26:20;;;;;;;5.50;2.55;;;;;;;;;;5055619;28;20028;-79
2022/09/10 09:28:58;;;;;;;5.28;2.70;;;;;;;;;;5051288;28;20033;-83
2022/09/10 09:31:45;;;;;;;6.78;2.42;;;;;;;;;;5052457;28;20021;-82
2022/09/10 09:34:20;;;;;;;5.40;2.95;;;;;;;;;;5043612;28;20032;-79
2022/09/10 09:36:48;;;;;;;4.72;2.42;;;;;;;;;;5044793;28;20032;-80
2022/09/10 09:39:17;;;;;;;6.00;2.30;;;;;;;;;;5050978;28;20060;-81
2022/09/10 09:42:22;;;;;;;4.65;2.53;;;;;;;;;;5053150;28;20028;-82
2022/09/10 09:44:55;;;;;;;4.38;2.25;;;;;;;;;;5038758;28;20037;-79
2022/09/10 09:47:22;;;;;;;6.78;3.22;;;;;;;;;;5042960;28;20049;-80
2022/09/10 09:49:48;;;;;;;4.93;2.45;;;;;;;;;;5047555;28;20091;-81
2022/09/10 09:52:17;;;;;;;4.15;2.08;;;;;;;;;;5032136;28;20108;-81
2022/09/10 09:54:46;;;;;;;4.15;2.10;;;;;;;;;;5039787;28;20087;-81
2022/09/10 09:57:19;;;;;;;4.55;2.60;;;;;;;;;;5034079;28;20037;-81
2022/09/10 09:59:45;;;;;;;4.32;2.15;;;;;;;;;;5046864;28;20029;-80
2022/09/10 10:02:13;;;;;;;5.43;2.28;;;;;;;;;;5043138;28;20120;-82
2022/09/10 10:04:41;;;;;;;4.57;2.20;;;;;;;;;;5057208;28;20028;-81
2022/09/10 10:07:07;;;;;;;4.40;2.35;;;;;;;;;;5048521;28;20437;-82
2022/09/10 10:09:43;;;;;;;4.95;2.40;;;;;;;;;;5048079;28;20068;-83
2022/09/10 10:12:18;;;;;;;5.85;2.70;;;;;;;;;;5048294;28;20026;-81
2022/09/10 10:14:44;;;;;;;4.50;2.20;;;;;;;;;;5047663;28;20029;-81
2022/09/10 10:17:29;;;;;;;4.28;2.17;;;;;;;;;;5038991;28;20025;-81
2022/09/10 10:19:59;;;;;;;5.00;2.25;;;;;;;;;;5046979;28;20037;-81
2022/09/10 10:22:26;;;;;;;5.40;2.33;;;;;;;;;;5058603;28;20036;-80
2022/09/10 10:24:53;;;;;;;4.70;2.60;;;;;;;;;;5054085;28;20033;-83
2022/09/10 10:27:19;;;;;;;4.60;2.55;;;;;;;;;;5059454;28;20167;-81
2022/09/10 10:30:09;;;;;;;3.95;2.22;;;;;;;;;;5056469;28;20029;-81
2022/09/10 10:32:41;;;;;;;5.00;2.22;;;;;;;;;;5044943;28;20033;-81
2022/09/10 10:35:12;;;;;;;5.60;2.38;;;;;;;;;;5058387;28;20017;-81
2022/09/10 10:37:55;;;;;;;4.53;2.10;;;;;;;;;;5059351;28;20021;-81
2022/09/10 10:40:21;;;;;;;;;;;;;;;;;;5060415;28;20024;-82
2022/09/10 10:42:58;;;;;;;4.57;1.92;;;;;;;;;;5054313;28;19909;-82
2022/09/10 10:45:37;;;;;;;3.90;1.90;;;;;;;;;;5041887;28;20031;-82
2022/09/10 10:48:08;;;;;;;4.18;1.80;;;;;;;;;;5062751;28;20385;-82
2022/09/10 10:50:34;;;;;;;4.13;1.90;;;;;;;;;;5067202;28;20082;-83
2022/09/10 10:53:10;;;;;;;4.38;2.78;;;;;;;;;;5067373;28;20083;-82
2022/09/10 10:55:40;;;;;;;5.07;1.80;;;;;;;;;;5040539;28;20080;-82
2022/09/10 10:58:09;;;;;;;4.40;1.80;;;;;;;;;;5050908;28;20021;-82
2022/09/10 11:00:40;;;;;;;4.47;1.50;;;;;;;;;;5055482;28;20040;-80
2022/09/10 11:03:15;;;;;;;3.10;1.30;;;;;;;;;;5056113;28;20025;-80
2022/09/10 11:05:44;;;;;;;3.42;1.30;;;;;;;;;;5057045;28;20072;-80
2022/09/10 11:08:18;;;;;;;2.95;1.40;;;;;;;;;;5054764;28;20574;-81
2022/09/10 11:10:57;;;;;;;2.35;1.20;;;;;;;;;;5055813;28;20032;-82
2022/09/10 11:13:43;;;;;;;3.00;1.10;;;;;;;;;;5054652;28;20499;-81
2022/09/10 11:16:19;;;;;;;4.13;1.20;;;;;;;;;;5056963;28;20068;-80
2022/09/10 11:19:17;;;;;;;3.28;1.20;;;;;;;;;;5055531;28;20063;-80
2022/09/10 11:21:48;;;;;;;3.20;1.10;;;;;;;;;;5062818;28;20506;-80
2022/09/10 11:24:20;;;;;;;2.78;1.08;;;;;;;;;;5072623;28;20064;-81
2022/09/10 11:26:55;;;;;;;2.38;1.10;;;;;;;;;;5077983;28;20402;-81
2022/09/10 11:29:39;;;;;;;3.22;1.20;;;;;;;;;;5075658;28;20521;-82
2022/09/10 11:32:08;;;;;;;3.75;1.27;;;;;;;;;;5075501;28;20032;-83
2022/09/10 11:34:40;;;;;;;3.90;1.30;;;;;;;;;;5069926;28;20078;-84
2022/09/10 11:37:12;;;;;;;3.90;1.48;;;;;;;;;;5067350;28;20040;-83
2022/09/10 11:39:42;;;;;;;4.53;1.42;;;;;;;;;;5064901;28;20060;-82
2022/09/10 11:42:20;;;;;;;4.80;1.60;;;;;;;;;;5079320;28;20028;-81
2022/09/10 11:44:46;;;;;;;4.10;1.55;;;;;;;;;;5076033;28;20170;-81
2022/09/10 11:47:18;;;;;;;3.35;1.45;;;;;;;;;;5071010;28;20044;-81
2022/09/10 11:49:47;;;;;;;2.97;1.50;;;;;;;;;;5083023;28;20503;-82
2022/09/10 11:52:13;;;;;;;3.25;1.10;;;;;;;;;;5081427;28;20025;-83
2022/09/10 11:54:39;;;;;;;4.13;1.67;;;;;;;;;;5059028;28;20044;-83
2022/09/10 11:57:32;;;;;;;4.35;1.50;;;;;;;;;;5058108;28;20033;-83
2022/09/10 12:00:01;;;;;;;3.30;1.48;;;;;;;;;;5062033;28;20135;-81
2022/09/10 12:02:39;;;;;;;4.38;2.00;;;;;;;;;;5060410;28;20523;-84
2022/09/10 12:05:11;;;;;;;8.52;2.72;;;;;;;;;;5056941;28;20055;-83
2022/09/10 12:07:43;;;;;;;6.50;1.90;;;;;;;;;;5059002;28;20562;-82
2022/09/10 12:10:09;;;;;;;7.07;1.70;;;;;;;;;;5057458;28;20097;-84
2022/09/10 12:12:41;;;;;;;8.43;2.00;;;;;;;;;;5054780;28;20052;-83
2022/09/10 12:15:08;;;;;;;5.57;1.63;;;;;;;;;;5059376;28;20078;-83
2022/09/10 12:17:38;;;;;;;4.78;1.52;;;;;;;;;;5058819;28;20028;-83
2022/09/10 12:20:05;;;;;;;4.57;1.80;;;;;;;;;;5059050;28;20029;-83
2022/09/10 12:22:35;;;;;;;7.57;1.80;;;;;;;;;;5059363;28;20025;-84
2022/09/10 12:25:03;;;;;;;4.45;1.65;;;;;;;;;;5059811;28;20057;-83
2022/09/10 12:27:44;;;;;;;5.03;1.50;;;;;;;;;;5061099;28;20036;-84
2022/09/10 12:30:30;;;;;;;5.15;1.75;;;;;;;;;;5058655;28;20060;-84
2022/09/10 12:33:01;;;;;;;6.43;1.67;;;;;;;;;;5057021;28;20025;-82
2022/09/10 12:35:30;;;;;;;6.22;1.90;;;;;;;;;;5057840;28;20032;-84
2022/09/10 12:38:15;;;;;;;3.63;1.50;;;;;;;;;;5057309;28;20053;-82
2022/09/10 12:40:48;;;;;;;4.95;1.70;;;;;;;;;;5055227;28;20033;-82
2022/09/10 12:43:32;;;;;;;5.20;1.77;;;;;;;;;;5057610;28;20021;-80
2022/09/10 12:46:15;;;;;;;5.32;1.92;;;;;;;;;;5057116;28;20079;-81
2022/09/10 12:48:43;;;;;;;5.22;2.33;;;;;;;;;;5053421;28;20039;-80
2022/09/10 12:51:15;;;;;;;4.00;1.98;;;;;;;;;;5056277;28;20052;-81
2022/09/10 12:54:00;;;;;;;5.57;2.80;;;;;;;;;;5039081;28;20033;-79
2022/09/10 12:56:45;;;;;;;5.72;2.53;;;;;;;;;;5032570;28;20057;-80
2022/09/10 12:59:23;;;;;;;4.85;2.40;;;;;;;;;;5047521;28;20056;-80
2022/09/10 13:01:50;;;;;;;5.30;2.95;;;;;;;;;;5053994;28;20035;-81
2022/09/10 13:04:28;;;;;;;5.28;2.70;;;;;;;;;;5052737;28;20028;-82
2022/09/10 13:06:58;;;;;;;5.13;2.60;;;;;;;;;;5054181;28;20025;-83
2022/09/10 13:09:36;;;;;;;4.22;2.50;;;;;;;;;;5056191;28;20037;-82
2022/09/10 13:12:04;;;;;;;4.03;2.35;;;;;;;;;;5050276;28;20104;-82
2022/09/10 13:14:44;;;;;;;4.13;2.38;;;;;;;;;;5058215;28;20028;-84
2022/09/10 13:17:30;;;;;;;3.60;2.00;;;;;;;;;;5051834;28;20047;-81
2022/09/10 13:20:11;;;;;;;4.53;2.03;;;;;;;;;;5053947;28;20029;-81
2022/09/10 13:22:57;;;;;;;4.75;1.92;;;;;;;;;;5054141;28;20025;-82
2022/09/10 13:25:35;;;;;;;3.05;1.50;;;;;;;;;;5055428;28;20029;-81
2022/09/10 13:28:02;;;;;;;4.40;1.70;;;;;;;;;;5054316;28;20111;-81
2022/09/10 13:30:30;;;;;;;4.55;1.63;;;;;;;;;;5058510;28;20401;-82
2022/09/10 13:33:00;;;;;;;2.95;1.42;;;;;;;;;;5064120;28;20052;-81
2022/09/10 13:35:46;;;;;;;2.95;1.30;;;;;;;;;;5062627;28;20460;-82
2022/09/10 13:38:18;;;;;;;3.30;1.50;;;;;;;;;;5064103;28;20021;-81
2022/09/10 13:41:03;;;;;;;4.13;1.85;;;;;;;;;;5062264;28;20037;-83
2022/09/10 13:43:38;;;;;;;2.72;1.17;;;;;;;;;;5062733;28;20056;-81
2022/09/10 13:46:19;;;;;;;3.08;1.40;;;;;;;;;;5061310;28;20045;-81
2022/09/10 13:48:52;;;;;;;3.03;1.27;;;;;;;;;;5061382;28;20044;-81
2022/09/10 13:51:24;;;;;;;2.78;1.30;;;;;;;;;;5061157;28;20519;-80
2022/09/10 13:53:51;;;;;;;3.08;1.10;;;;;;;;;;5062229;28;20025;-80
2022/09/10 13:56:20;;;;;;;2.70;1.00;;;;;;;;;;5060103;28;20033;-83
2022/09/10 13:58:48;;;;;;;3.00;0.90;;;;;;;;;;5060957;28;20115;-81
2022/09/10 14:01:14;;;;;;;3.55;1.20;;;;;;;;;;5058861;28;20032;-81
2022/09/10 14:03:40;;;;;;;4.78;1.85;;;;;;;;;;5061712;28;20021;-81
2022/09/10 14:06:11;;;;;;;2.45;1.00;;;;;;;;;;5063907;28;20033;-82
2022/09/10 14:08:55;;;;;;;9.43;2.47;;;;;;;;;;5064075;28;20021;-81
2022/09/10 14:11:24;;;;;;;9.80;2.58;;;;;;;;;;5061573;28;20029;-82
2022/09/10 14:14:08;;;;;;;6.93;2.55;;;;;;;;;;5059885;28;20033;-82
2022/09/10 14:16:36;;;;;;;6.28;2.60;;;;;;;;;;5060938;28;20052;-80
2022/09/10 14:19:04;;;;;;;6.82;2.67;;;;;;;;;;5060351;28;20037;-81
2022/09/10 14:21:30;;;;;;;5.65;2.20;;;;;;;;;;5058904;28;20025;-82
2022/09/10 14:23:58;;;;;;;5.25;2.50;;;;;;;;;;5061503;28;20063;-82
2022/09/10 14:26:26;;;;;;;5.55;2.40;;;;;;;;;;5060888;28;20025;-82
2022/09/10 14:28:59;;;;;;;5.38;2.00;;;;;;;;;;5060309;28;20042;-83
2022/09/10 14:31:25;;;;;;;4.15;1.92;;;;;;;;;;5059239;28;20032;-82
2022/09/10 14:33:52;;;;;;;4.57;1.83;;;;;;;;;;5062775;28;20032;-82
2022/09/10 14:36:28;;;;;;;4.35;1.42;;;;;;;;;;5060255;28;20032;-83
2022/09/10 14:38:55;;;;;;;3.50;1.45;;;;;;;;;;5059970;28;20124;-82
2022/09/10 14:41:23;;;;;;;2.83;1.10;;;;;;;;;;5059799;28;20040;-83
2022/09/10 14:43:50;;;;;;;3.35;1.40;;;;;;;;;;5059566;28;20025;-82
2022/09/10 14:46:35;;;;;;;4.35;1.52;;;;;;;;;;5058496;28;20040;-82
2022/09/10 14:49:03;;;;;;;5.60;1.80;;;;;;;;;;5059720;28;20048;-82
2022/09/10 14:51:29;;;;;;;4.72;1.40;;;;;;;;;;5060542;28;20021;-82
2022/09/10 14:53:56;;;;;;;3.80;1.67;;;;;;;;;;5059736;28;20024;-82
2022/09/10 14:56:22;;;;;;;3.85;1.92;;;;;;;;;;5060782;28;20120;-83
2022/09/10 14:59:11;;;;;;;5.07;1.73;;;;;;;;;;5060841;28;20055;-82